Red Lodge, MT (59068)

7:59 AM MST on February 23, 2017 (GMT -0700)
Tipi Village Sub-Division | | Change Station
Active Advisory: Winter Storm Warning

Elev 5920 ft 45.17 °N, 109.27 °W | Updated 4 minutes ago

Overcast
Overcast
19.1 °F
Feels Like 19 °F
N
0.0
Wind Variable Wind from North
Gusts 0.0 mph

Today
High -- | Low -- °F
--% Chance of Precip.
Yesterday
High -- | Low -- °F
Precip. -- in
Pressure 29.89 in
Visibility 6.0 miles
Clouds Overcast 1000 ft
Windchill 19 °F
Dew Point 17 °F
Humidity 93%
Rainfall 0.00 in
Snow Depth Not available.
7:04 AM 5:56 PM
Waning Crescent, 10% visible
METAR KCOD 231456Z AUTO 35014KT 6SM -SN BR OVC010 M04/M06 A2977 RMK AO2 PK WND 35026/1402 SLP122 P0000 60000 T10441061 51005 FZRANO
Pressure 29.89 in
Visibility 6.0 miles
Clouds Overcast 1000 ft
Windchill 19 °F
Dew Point 17 °F
Humidity 93%
Rainfall 0.00 in
Snow Depth Not available.
7:04 AM 5:56 PM
Waning Crescent, 10% visible
METAR KCOD 231456Z AUTO 35014KT 6SM -SN BR OVC010 M04/M06 A2977 RMK AO2 PK WND 35026/1402 SLP122 P0000 60000 T10441061 51005 FZRANO

Get Your Daily Forecast Email!

Thanks for signing up!

Be on the lookout for a verification email in your inbox.

You'll start receiving the daily forecast at 8 AM.

×

10-Day Weather Forecast

Almanac

Astronomy

Feb. 23, 2017 Rise Set
Actual Time
Civil Twilight
Nautical Twilight
Astronomical Twilight
Moon
Length of Visible Light
Length of Day
Tomorrow will be .
, % of the Moon is Illuminated

Today's Extremes

State Highs State Lows

Community

WunderPhotos

Upload Photos

1,962,540 photos uploaded!

WunderBlog® & News

Nearby

Air Quality

  Air Quality AQ Index Pollutant
Not available.

Snow Depth

Station Depth Elevation

Earthquake Activity

City Distance Mag. Time & Date
Minimum magnitude displayed is 2.5.

Coastal Water Temperatures

Place Temperature

Stations

Nearby Weather Stations

Station Location Temp. Windchill Dew Point Humidity Wind Precip. Elev Updated Type
                   

Watches & Warnings

Winter Storm Warning
Issued: 3:01 AM MST Feb. 23, 2017 – National Weather Service

... Winter Storm Warning remains in effect until noon MST Friday...

* impacts... poor travel conditions due to snow covered roads and
limited visibility, including portions of Interstate 90 and
Highway 212. Cold and wet weather may be hazardous to Young
livestock.

* Timing... through Friday morning.

* Total snow accumulation... 5 to 12 inches, greatest along the
northeast facing slopes of the beartooth, absaroka and Crazy
Mountains.

Precautionary/preparedness actions...

A Winter Storm Warning means a significant amount of snow is
expected or occurring. This will make travel very hazardous or
impossible.